Time;durP1;ratioP1;P1;durP2;ratioP2;P2;SDS_P1;SDS_P2;PMS_P1;PMS_P2;Temp;Humidity;BMP_temperature;BMP_pressure;BME280_temperature;BME280_humidity;BME280_pressure;Samples;Min_cycle;Max_cycle;Signal;HPM_P1;HPM_P2
2022/06/17 00:00:45;;;;;;;7.30;3.30;;;21.30;55.40;;;;;;5115815;28;20469;-56
2022/06/17 00:03:14;;;;;;;5.10;3.00;;;21.30;55.40;;;;;;5115594;28;20446;-56
2022/06/17 00:05:41;;;;;;;2.93;2.67;;;21.30;55.50;;;;;;5115650;28;20620;-56
2022/06/17 00:08:14;;;;;;;2.80;2.60;;;21.30;55.40;;;;;;5115385;28;20532;-56
2022/06/17 00:10:42;;;;;;;3.73;3.30;;;21.30;55.40;;;;;;5115103;28;20474;-56
2022/06/17 00:13:13;;;;;;;3.00;2.80;;;21.20;55.90;;;;;;5115423;28;20896;-56
2022/06/17 00:15:40;;;;;;;10.23;2.83;;;21.20;56.00;;;;;;5115220;28;20518;-56
2022/06/17 00:18:08;;;;;;;4.07;3.23;;;21.10;55.90;;;;;;5115050;28;20481;-56
2022/06/17 00:20:37;;;;;;;9.90;2.70;;;21.00;55.90;;;;;;5115324;28;20523;-56
2022/06/17 00:23:04;;;;;;;5.20;2.70;;;21.00;56.00;;;;;;5115009;28;20423;-57
2022/06/17 00:25:35;;;;;;;5.87;2.87;;;21.00;56.30;;;;;;5114994;28;20768;-56
2022/06/17 00:28:10;;;;;;;6.60;2.93;;;20.90;56.30;;;;;;5114186;28;20466;-56
2022/06/17 00:30:37;;;;;;;4.83;2.83;;;20.80;56.70;;;;;;5114738;28;20553;-56
2022/06/17 00:33:05;;;;;;;3.50;3.03;;;20.80;57.00;;;;;;5114855;28;20447;-56
2022/06/17 00:35:34;;;;;;;6.27;2.97;;;20.70;57.00;;;;;;5114843;28;20536;-55
2022/06/17 00:38:03;;;;;;;3.23;2.93;;;20.70;57.00;;;;;;5114773;28;20529;-56
2022/06/17 00:40:33;;;;;;;5.50;3.13;;;;;;;;;;5114785;28;20458;-56
2022/06/17 00:43:04;;;;;;;3.37;3.07;;;20.60;57.00;;;;;;5114712;28;20442;-56
2022/06/17 00:45:35;;;;;;;3.90;2.83;;;20.60;57.70;;;;;;5114477;28;20871;-56
2022/06/17 00:48:07;;;;;;;3.10;2.73;;;20.50;57.80;;;;;;5114509;28;20498;-56
2022/06/17 00:50:40;;;;;;;4.47;2.83;;;20.40;58.00;;;;;;5114724;27;20473;-56
2022/06/17 00:53:17;;;;;;;3.83;3.27;;;20.30;57.80;;;;;;5114510;28;20522;-56
2022/06/17 00:55:49;;;;;;;4.60;3.33;;;20.40;58.20;;;;;;5114221;28;20904;-56
2022/06/17 00:58:19;;;;;;;3.43;2.63;;;20.30;58.30;;;;;;5114286;28;20433;-55
2022/06/17 01:00:48;;;;;;;5.00;3.63;;;20.30;58.40;;;;;;5114247;28;20471;-56
2022/06/17 01:03:19;;;;;;;2.63;2.43;;;20.30;58.40;;;;;;5114617;28;20534;-56
2022/06/17 01:05:50;;;;;;;2.97;2.77;;;20.30;58.40;;;;;;5114603;28;20429;-56
2022/06/17 01:11:29;;;;;;;4.43;3.27;;;20.20;58.50;;;;;;5114420;28;20437;-56
2022/06/17 01:13:56;;;;;;;2.97;2.77;;;20.20;58.60;;;;;;5114209;28;20434;-56
2022/06/17 01:16:28;;;;;;;3.93;3.63;;;20.20;58.90;;;;;;5113922;28;20446;-56
2022/06/17 01:18:57;;;;;;;3.50;2.90;;;20.10;58.90;;;;;;5114012;28;20553;-57
2022/06/17 01:21:31;;;;;;;3.10;2.70;;;20.00;59.20;;;;;;5113869;28;20446;-56
2022/06/17 01:24:00;;;;;;;3.37;3.17;;;19.90;58.90;;;;;;5114013;28;20801;-56
2022/06/17 01:26:28;;;;;;;3.23;2.93;;;19.90;59.20;;;;;;5113870;28;20533;-56
2022/06/17 01:28:55;;;;;;;3.77;3.37;;;19.70;59.30;;;;;;5114142;28;20554;-56
2022/06/17 01:31:23;;;;;;;5.50;3.53;;;19.70;59.70;;;;;;5113828;28;20435;-56
2022/06/17 01:33:51;;;;;;;5.80;3.30;;;19.70;59.90;;;;;;5113803;28;20452;-56
2022/06/17 01:36:21;;;;;;;3.60;3.00;;;19.70;59.80;;;;;;5113977;28;20443;-56
2022/06/17 01:38:52;;;;;;;5.50;2.83;;;19.70;59.80;;;;;;5113560;28;20957;-56
2022/06/17 01:41:25;;;;;;;3.40;3.10;;;19.70;59.70;;;;;;5114045;28;20613;-56
2022/06/17 01:43:54;;;;;;;3.10;2.87;;;19.70;60.30;;;;;;5112532;28;21048;-56
2022/06/17 01:46:25;;;;;;;2.67;2.47;;;19.70;59.70;;;;;;5113961;28;20485;-56
2022/06/17 01:48:56;;;;;;;4.93;3.30;;;19.70;60.00;;;;;;5113980;28;20539;-56
2022/06/17 01:51:26;;;;;;;3.30;3.10;;;19.70;60.10;;;;;;5113964;28;20525;-56
2022/06/17 01:53:58;;;;;;;3.20;2.90;;;19.70;60.00;;;;;;5114053;28;20439;-56
2022/06/17 01:56:34;;;;;;;12.07;3.90;;;19.70;59.90;;;;;;5113705;28;20445;-56
2022/06/17 01:59:06;;;;;;;2.93;2.63;;;19.70;59.70;;;;;;5113666;28;20466;-56
2022/06/17 02:01:37;;;;;;;3.00;2.80;;;19.70;59.90;;;;;;5113948;28;20427;-56
2022/06/17 02:04:08;;;;;;;4.10;3.10;;;19.70;60.30;;;;;;5113702;28;20522;-56
2022/06/17 02:06:42;;;;;;;3.50;3.00;;;19.60;60.80;;;;;;5113810;28;20518;-56
2022/06/17 02:09:09;;;;;;;3.87;3.50;;;19.60;61.20;;;;;;5113970;28;20565;-56
2022/06/17 02:11:37;;;;;;;4.70;3.50;;;19.50;61.80;;;;;;5113917;28;20454;-56
2022/06/17 02:14:08;;;;;;;3.50;3.20;;;19.40;61.10;;;;;;5113640;28;20521;-56
2022/06/17 02:16:39;;;;;;;3.63;2.67;;;19.30;62.00;;;;;;5113765;28;20430;-56
2022/06/17 02:19:06;;;;;;;3.20;3.00;;;19.10;62.40;;;;;;5113399;28;21011;-56
2022/06/17 02:21:39;;;;;;;3.00;2.80;;;19.10;62.80;;;;;;5113391;28;20538;-56
2022/06/17 02:24:07;;;;;;;3.90;3.60;;;19.10;63.20;;;;;;5113649;28;20404;-56
2022/06/17 02:26:37;;;;;;;6.33;3.80;;;19.00;63.20;;;;;;5113054;28;20526;-56
2022/06/17 02:29:09;;;;;;;3.50;3.00;;;18.90;63.20;;;;;;5113259;28;20565;-56
2022/06/17 02:31:38;;;;;;;3.53;3.10;;;19.00;63.30;;;;;;5113425;28;20437;-56
2022/06/17 02:34:06;;;;;;;5.60;3.17;;;19.00;63.60;;;;;;5113575;28;20452;-57
2022/06/17 02:36:44;;;;;;;3.37;3.10;;;19.00;65.30;;;;;;5113432;28;20449;-57
2022/06/17 02:39:13;;;;;;;3.03;2.70;;;19.00;65.00;;;;;;5113521;28;20446;-57
2022/06/17 02:41:42;;;;;;;3.70;3.03;;;18.90;65.70;;;;;;5112974;28;20558;-56
2022/06/17 02:44:17;;;;;;;3.37;2.90;;;18.90;66.00;;;;;;5112938;28;20976;-56
2022/06/17 02:46:46;;;;;;;3.53;3.23;;;18.90;65.90;;;;;;5113413;28;20441;-56
2022/06/17 02:49:17;;;;;;;4.80;3.23;;;18.90;66.30;;;;;;5112964;28;20547;-56
2022/06/17 02:51:45;;;;;;;4.70;3.00;;;18.80;66.30;;;;;;5114430;28;20430;-56
2022/06/17 02:54:17;;;;;;;4.43;3.37;;;18.90;66.50;;;;;;5117122;28;20538;-57
2022/06/17 02:56:51;;;;;;;3.40;3.10;;;18.60;66.50;;;;;;5116898;28;20438;-56
2022/06/17 02:59:25;;;;;;;4.10;2.90;;;18.60;67.90;;;;;;5116655;28;20944;-56
2022/06/17 03:01:56;;;;;;;4.37;2.67;;;18.60;67.70;;;;;;5117024;27;20430;-56
2022/06/17 03:04:26;;;;;;;5.90;3.47;;;18.70;67.50;;;;;;5116535;28;20423;-57
2022/06/17 03:06:53;;;;;;;3.60;3.30;;;18.80;67.90;;;;;;5116548;28;20449;-56
2022/06/17 03:09:23;;;;;;;4.47;3.43;;;18.80;67.80;;;;;;5116315;28;20561;-56
2022/06/17 03:11:55;;;;;;;3.93;2.83;;;18.70;67.70;;;;;;5116879;28;20545;-56
2022/06/17 03:14:26;;;;;;;5.30;2.97;;;18.70;68.80;;;;;;5116364;28;20426;-56
2022/06/17 03:16:56;;;;;;;3.50;3.20;;;18.70;68.20;;;;;;5116398;28;20423;-56
2022/06/17 03:19:24;;;;;;;3.70;3.40;;;18.50;68.00;;;;;;5116392;28;20553;-56
2022/06/17 03:21:52;;;;;;;3.30;3.00;;;18.50;68.00;;;;;;5116271;28;20443;-57
2022/06/17 03:24:25;;;;;;;3.10;2.80;;;18.40;67.80;;;;;;5116084;28;20446;-56
2022/06/17 03:26:59;;;;;;;3.20;2.90;;;18.40;68.00;;;;;;5116085;28;20439;-56
2022/06/17 03:29:28;;;;;;;3.97;3.60;;;18.40;68.20;;;;;;5116276;28;20561;-56
2022/06/17 03:32:01;;;;;;;3.20;2.90;;;18.50;68.10;;;;;;5116419;28;20545;-56
2022/06/17 03:34:36;;;;;;;3.63;3.33;;;18.40;68.20;;;;;;5116397;28;20526;-56
2022/06/17 03:37:09;;;;;;;3.60;3.30;;;18.40;68.50;;;;;;5115923;28;20435;-56
2022/06/17 03:39:39;;;;;;;4.60;3.20;;;18.30;68.40;;;;;;5115937;28;20476;-56
2022/06/17 03:42:13;;;;;;;4.80;2.87;;;18.30;69.10;;;;;;5115665;28;20472;-57
2022/06/17 03:44:47;;;;;;;3.00;2.80;;;18.40;70.20;;;;;;5115786;28;20458;-56
2022/06/17 03:47:20;;;;;;;3.50;3.10;;;18.40;69.70;;;;;;5115651;28;20422;-57
2022/06/17 03:49:53;;;;;;;4.40;3.97;;;18.30;70.10;;;;;;5116022;28;20490;-57
2022/06/17 03:52:29;;;;;;;4.07;3.10;;;18.30;69.60;;;;;;5115720;28;20924;-56
2022/06/17 03:54:57;;;;;;;3.47;3.17;;;18.20;70.00;;;;;;5115853;28;20779;-56
2022/06/17 03:57:28;;;;;;;5.63;3.43;;;18.30;70.40;;;;;;5135906;27;20941;-56
2022/06/17 03:59:56;;;;;;;3.80;3.20;;;18.10;69.90;;;;;;5136243;27;20892;-56
2022/06/17 04:02:29;;;;;;;3.47;3.17;;;18.00;69.50;;;;;;5136364;27;20442;-56
2022/06/17 04:04:57;;;;;;;4.20;3.23;;;18.10;70.40;;;;;;5136225;27;20824;-56
2022/06/17 04:07:24;;;;;;;5.97;3.00;;;18.10;70.70;;;;;;5136246;27;20556;-57
2022/06/17 04:09:54;;;;;;;3.50;3.00;;;18.20;70.80;;;;;;5135739;27;20457;-57
2022/06/17 04:12:28;;;;;;;4.80;3.40;;;18.10;71.50;;;;;;5135860;27;20519;-57
2022/06/17 04:15:00;;;;;;;4.10;3.70;;;18.00;71.50;;;;;;5135989;27;20477;-56
2022/06/17 04:17:33;;;;;;;3.13;2.93;;;18.00;72.10;;;;;;5135710;27;20422;-57
2022/06/17 04:20:28;;;;;;;2.97;2.77;;;18.10;73.00;;;;;;5136013;27;20544;-57
2022/06/17 04:22:57;;;;;;;4.63;3.40;;;18.10;72.40;;;;;;5135875;27;20526;-57
2022/06/17 04:25:31;;;;;;;4.07;3.13;;;18.10;72.60;;;;;;5135426;27;20450;-57
2022/06/17 04:28:06;;;;;;;5.23;4.00;;;18.10;72.90;;;;;;5135847;27;20454;-56
2022/06/17 04:30:37;;;;;;;3.30;3.00;;;18.10;72.60;;;;;;5135589;27;20465;-56
2022/06/17 04:33:07;;;;;;;4.80;3.03;;;18.10;73.60;;;;;;5135699;27;20517;-57
2022/06/17 04:35:36;;;;;;;2.97;2.77;;;18.10;73.10;;;;;;5135308;27;20426;-57
2022/06/17 04:38:03;;;;;;;3.90;3.00;;;18.10;73.70;;;;;;5135505;27;20478;-57
2022/06/17 04:40:37;;;;;;;3.40;2.93;;;18.30;72.60;;;;;;5134970;27;20470;-56
2022/06/17 04:43:12;;;;;;;3.37;3.07;;;18.40;72.20;;;;;;5135008;27;20436;-57
2022/06/17 04:45:40;;;;;;;3.20;2.83;;;18.50;73.50;;;;;;5135048;27;20441;-56
2022/06/17 04:48:09;;;;;;;4.90;4.03;;;18.60;72.20;;;;;;5135166;27;20438;-56
2022/06/17 04:50:36;;;;;;;3.73;3.20;;;18.60;73.00;;;;;;5134880;27;20497;-57
2022/06/17 04:53:04;;;;;;;3.80;3.50;;;18.70;73.00;;;;;;5135255;27;20477;-56
2022/06/17 04:55:34;;;;;;;3.53;3.23;;;18.60;72.90;;;;;;5134751;27;20775;-56
2022/06/17 04:58:02;;;;;;;4.50;3.70;;;18.70;73.40;;;;;;5135037;27;20821;-57
2022/06/17 05:00:30;;;;;;;5.13;3.37;;;18.70;73.50;;;;;;5135043;27;20553;-57
2022/06/17 05:02:58;;;;;;;7.83;3.37;;;18.70;72.80;;;;;;5134842;27;20445;-56
2022/06/17 05:05:32;;;;;;;6.13;2.73;;;18.70;74.80;;;;;;5134738;27;20446;-56
2022/06/17 05:08:01;;;;;;;4.23;3.77;;;18.80;74.50;;;;;;5135161;27;20502;-56
2022/06/17 05:10:34;;;;;;;3.53;3.23;;;18.80;72.70;;;;;;5134683;27;20477;-56
2022/06/17 05:13:06;;;;;;;5.47;2.67;;;18.90;72.10;;;;;;5134979;27;20536;-56
2022/06/17 05:15:36;;;;;;;4.47;3.17;;;18.90;74.30;;;;;;5134595;27;20779;-56
2022/06/17 05:18:03;;;;;;;4.13;2.60;;;19.00;74.00;;;;;;5134560;27;20513;-56
2022/06/17 05:20:31;;;;;;;3.00;2.77;;;19.00;72.20;;;;;;5134292;27;20548;-56
2022/06/17 05:23:01;;;;;;;3.80;2.73;;;19.00;72.60;;;;;;5134311;27;20441;-56
2022/06/17 05:25:31;;;;;;;4.17;3.50;;;19.10;72.40;;;;;;5134674;27;20437;-56
2022/06/17 05:27:58;;;;;;;5.37;3.20;;;19.10;72.10;;;;;;5134530;27;20529;-56
2022/06/17 05:30:26;;;;;;;3.77;2.63;;;19.10;71.70;;;;;;5134656;27;20548;-56
2022/06/17 05:32:56;;;;;;;2.97;2.73;;;19.10;70.80;;;;;;5134262;27;20932;-56
2022/06/17 05:35:24;;;;;;;3.70;3.30;;;19.10;72.10;;;;;;5134595;27;20561;-56
2022/06/17 05:37:51;;;;;;;3.47;3.13;;;19.30;72.70;;;;;;5134302;27;20449;-56
2022/06/17 05:40:19;;;;;;;3.50;3.20;;;19.30;71.20;;;;;;5134288;27;20473;-56
2022/06/17 05:42:47;;;;;;;3.93;2.80;;;19.40;73.50;;;;;;5134114;27;20434;-56
2022/06/17 05:45:17;;;;;;;5.57;3.27;;;19.50;74.60;;;;;;5134141;27;20477;-56
2022/06/17 05:47:44;;;;;;;2.90;2.70;;;19.60;72.90;;;;;;5134134;27;20453;-56
2022/06/17 05:50:13;;;;;;;4.30;3.30;;;19.60;71.30;;;;;;5134709;27;20492;-56
2022/06/17 05:52:51;;;;;;;4.70;2.90;;;19.60;72.00;;;;;;5134057;27;20959;-56
2022/06/17 05:55:18;;;;;;;3.27;2.97;;;19.70;72.50;;;;;;5134227;27;20445;-56
2022/06/17 05:57:46;;;;;;;3.87;3.57;;;19.70;71.60;;;;;;5133808;27;20442;-56
2022/06/17 06:00:14;;;;;;;2.97;2.73;;;19.80;73.00;;;;;;5134274;27;20557;-56
2022/06/17 06:02:42;;;;;;;4.40;3.50;;;19.90;71.80;;;;;;5133728;27;20453;-56
2022/06/17 06:05:13;;;;;;;4.70;3.27;;;20.00;73.40;;;;;;5134412;27;20445;-57
2022/06/17 06:07:41;;;;;;;3.20;3.00;;;20.00;73.20;;;;;;5134223;27;20422;-56
2022/06/17 06:10:09;;;;;;;3.77;2.83;;;20.00;70.90;;;;;;5134105;27;20462;-56
2022/06/17 06:12:57;;;;;;;3.50;3.17;;;20.10;71.60;;;;;;5133770;27;20903;-56
2022/06/17 06:15:27;;;;;;;3.43;3.13;;;20.10;72.70;;;;;;5134041;27;20916;-56
2022/06/17 06:17:55;;;;;;;3.87;3.27;;;20.20;72.90;;;;;;5133669;27;20864;-56
2022/06/17 06:20:24;;;;;;;4.00;3.20;;;20.30;71.40;;;;;;5134231;27;20890;-56
2022/06/17 06:22:51;;;;;;;5.70;3.60;;;20.40;71.70;;;;;;5133725;27;20430;-56
2022/06/17 06:25:19;;;;;;;4.43;3.30;;;20.40;71.00;;;;;;5133644;27;20451;-56
2022/06/17 06:27:46;;;;;;;4.70;3.20;;;20.40;70.90;;;;;;5136821;27;20437;-56
2022/06/17 06:30:21;;;;;;;4.30;3.90;;;20.40;70.50;;;;;;5137882;27;20865;-56
2022/06/17 06:32:50;;;;;;;4.30;3.10;;;20.30;68.90;;;;;;5137670;27;20425;-56
2022/06/17 06:35:18;;;;;;;4.17;3.40;;;20.60;71.50;;;;;;5137988;27;20523;-56
2022/06/17 06:37:47;;;;;;;4.20;3.20;;;20.70;71.40;;;;;;5137580;27;20533;-56
2022/06/17 06:40:14;;;;;;;4.53;3.10;;;20.90;73.40;;;;;;5137591;27;20517;-56
2022/06/17 06:42:42;;;;;;;4.13;2.90;;;20.90;72.80;;;;;;5137513;27;20884;-57
2022/06/17 06:45:14;;;;;;;3.33;2.83;;;20.90;70.20;;;;;;5137211;27;20546;-56
2022/06/17 06:47:42;;;;;;;3.97;3.20;;;20.70;68.90;;;;;;5137750;27;20521;-56
2022/06/17 06:50:16;;;;;;;6.30;3.37;;;20.70;69.00;;;;;;5137653;27;20461;-56
2022/06/17 06:52:44;;;;;;;3.77;3.17;;;20.80;69.70;;;;;;5137361;27;20457;-56
2022/06/17 06:55:13;;;;;;;6.87;3.20;;;20.80;68.30;;;;;;5135603;27;20532;-57
2022/06/17 06:57:46;;;;;;;4.53;3.03;;;20.80;68.40;;;;;;5116951;28;20452;-57
2022/06/17 07:00:17;;;;;;;4.50;3.80;;;21.10;67.70;;;;;;5116409;27;20485;-57
2022/06/17 07:02:45;;;;;;;3.90;3.03;;;21.60;67.00;;;;;;5116566;28;20899;-57
2022/06/17 07:05:12;;;;;;;3.77;2.97;;;;;;;;;;5116294;28;21002;-57
2022/06/17 07:07:40;;;;;;;3.77;3.30;;;23.10;65.80;;;;;;5116794;28;20529;-55
2022/06/17 07:10:09;;;;;;;10.83;3.60;;;23.40;64.90;;;;;;5116231;28;21004;-55
2022/06/17 07:12:38;;;;;;;6.23;3.67;;;23.70;64.10;;;;;;5116629;28;20431;-56
2022/06/17 07:15:06;;;;;;;5.13;3.40;;;24.10;63.00;;;;;;5116520;28;20443;-56
2022/06/17 07:17:33;;;;;;;4.13;3.47;;;24.40;60.70;;;;;;5116287;28;20478;-55
2022/06/17 07:20:01;;;;;;;3.70;2.80;;;24.00;59.80;;;;;;5116005;28;20514;-56
2022/06/17 07:22:28;;;;;;;5.83;4.17;;;24.50;60.40;;;;;;5116485;28;20862;-57
2022/06/17 07:24:56;;;;;;;3.50;3.20;;;24.80;59.80;;;;;;5115944;28;20443;-56
2022/06/17 07:27:23;;;;;;;4.03;3.13;;;25.50;59.30;;;;;;5115769;28;20538;-57
2022/06/17 07:29:51;;;;;;;3.13;2.93;;;25.70;58.70;;;;;;5115870;28;20549;-56
2022/06/17 07:32:18;;;;;;;5.17;3.10;;;26.10;59.00;;;;;;5115945;28;20992;-56
2022/06/17 07:34:46;;;;;;;5.90;3.10;;;26.10;57.10;;;;;;5115629;28;20537;-57
2022/06/17 07:39:58;;;;;;;4.10;3.53;;;26.40;58.30;;;;;;5115519;28;20485;-57
2022/06/17 07:42:37;;;;;;;6.07;3.60;;;26.70;58.00;;;;;;5115870;28;20782;-57
2022/06/17 07:45:08;;;;;;;6.90;3.80;;;27.20;57.40;;;;;;5115528;28;20555;-57
2022/06/17 07:47:36;;;;;;;3.80;3.40;;;26.80;57.10;;;;;;5115942;28;20431;-57
2022/06/17 07:50:06;;;;;;;4.77;4.37;;;26.90;58.40;;;;;;5115815;28;20484;-57
2022/06/17 07:52:33;;;;;;;5.00;3.53;;;26.90;58.80;;;;;;5115552;28;20431;-57
2022/06/17 07:55:00;;;;;;;7.20;3.47;;;27.10;58.30;;;;;;5115404;28;20533;-57
2022/06/17 07:57:28;;;;;;;4.07;3.47;;;27.10;57.50;;;;;;5115488;28;20453;-56
2022/06/17 07:59:55;;;;;;;4.90;3.77;;;27.10;57.60;;;;;;5115108;28;20486;-56
2022/06/17 08:02:24;;;;;;;5.73;3.97;;;26.90;57.50;;;;;;5115300;28;20803;-57
2022/06/17 08:04:51;;;;;;;5.40;3.37;;;28.00;58.30;;;;;;5115024;28;20541;-57
2022/06/17 08:07:19;;;;;;;4.50;3.77;;;28.10;56.30;;;;;;5115610;28;20521;-57
2022/06/17 08:09:47;;;;;;;4.33;3.30;;;28.30;56.50;;;;;;5114986;28;20874;-57
2022/06/17 08:12:14;;;;;;;4.10;3.70;;;28.40;56.50;;;;;;5115480;28;20530;-57
2022/06/17 08:14:46;;;;;;;4.20;3.80;;;28.00;56.30;;;;;;5115345;28;20439;-57
2022/06/17 08:17:15;;;;;;;3.87;3.57;;;28.50;57.00;;;;;;5115236;28;20438;-57
2022/06/17 08:19:44;;;;;;;6.37;3.20;;;28.80;55.70;;;;;;5114917;28;20486;-57
2022/06/17 08:22:12;;;;;;;3.87;3.57;;;27.50;55.10;;;;;;5115562;28;20442;-56
2022/06/17 08:24:39;;;;;;;6.33;3.50;;;27.30;55.30;;;;;;5115193;28;20471;-57
2022/06/17 08:27:07;;;;;;;4.10;3.03;;;28.30;55.50;;;;;;5115163;28;20533;-57
2022/06/17 08:29:34;;;;;;;5.40;3.27;;;28.70;55.40;;;;;;5114851;28;20458;-56
2022/06/17 08:34:44;;;;;;;4.03;2.90;;;28.90;54.60;;;;;;5114584;28;20521;-57
2022/06/17 08:37:12;;;;;;;3.77;3.33;;;28.70;54.80;;;;;;5115042;28;20885;-57
2022/06/17 08:39:39;;;;;;;3.33;3.03;;;29.50;53.20;;;;;;5114843;28;20482;-57
2022/06/17 08:42:16;;;;;;;4.93;3.97;;;30.40;53.70;;;;;;5115191;28;20482;-57
2022/06/17 08:44:50;;;;;;;4.60;3.60;;;30.50;52.90;;;;;;5114507;28;20976;-57
2022/06/17 08:47:35;;;;;;;3.80;3.50;;;30.50;52.10;;;;;;5114411;28;20794;-57
2022/06/17 08:50:37;;;;;;;5.30;4.00;;;30.10;51.80;;;;;;5114044;28;20462;-57
2022/06/17 08:53:39;;;;;;;3.93;2.87;;;29.50;52.40;;;;;;5081155;28;20545;-57
2022/06/17 08:56:14;;;;;;;3.30;2.77;;;30.20;52.10;;;;;;5102902;28;20482;-57
2022/06/17 08:58:52;;;;;;;3.40;2.93;;;30.10;51.80;;;;;;5114520;28;20505;-56
2022/06/17 09:01:27;;;;;;;5.27;3.83;;;29.80;51.40;;;;;;5114135;28;20422;-56
2022/06/17 09:04:07;;;;;;;6.23;3.30;;;30.10;51.60;;;;;;5114377;28;20844;-56
2022/06/17 09:06:46;;;;;;;4.90;3.20;;;30.30;51.90;;;;;;5114105;28;20435;-57
2022/06/17 09:09:40;;;;;;;3.40;3.10;;;30.00;51.30;;;;;;5113964;28;20965;-57
2022/06/17 09:12:16;;;;;;;2.90;2.70;;;31.00;51.40;;;;;;5114500;28;20449;-57
2022/06/17 09:14:55;;;;;;;5.17;3.67;;;31.50;50.60;;;;;;5114026;28;20862;-57
2022/06/17 09:17:30;;;;;;;3.30;3.10;;;31.70;50.20;;;;;;5113828;28;20430;-56
2022/06/17 09:20:00;;;;;;;3.10;2.80;;;30.80;51.00;;;;;;5113535;28;20534;-56
2022/06/17 09:22:30;;;;;;;3.97;2.90;;;31.40;49.40;;;;;;5113689;28;20426;-56
2022/06/17 09:25:04;;;;;;;3.83;2.73;;;31.50;49.40;;;;;;5113591;28;20446;-56
2022/06/17 09:27:35;;;;;;;4.77;3.10;;;31.50;50.00;;;;;;5113867;28;20915;-57
2022/06/17 09:30:06;;;;;;;4.87;2.70;;;31.60;48.80;;;;;;5113666;28;20454;-56
2022/06/17 09:32:39;;;;;;;3.70;3.17;;;32.10;50.00;;;;;;5114055;28;20451;-56
2022/06/17 09:35:14;;;;;;;5.97;3.50;;;31.60;48.40;;;;;;5113605;28;20509;-57
2022/06/17 09:37:46;;;;;;;4.87;3.07;;;31.10;48.50;;;;;;5114049;28;20517;-57
2022/06/17 09:40:20;;;;;;;5.43;3.00;;;31.80;48.70;;;;;;5113881;28;20561;-57
2022/06/17 09:42:54;;;;;;;5.27;2.90;;;31.10;49.40;;;;;;5113822;28;20427;-57
2022/06/17 09:45:27;;;;;;;3.80;3.07;;;32.00;49.00;;;;;;5113376;28;20485;-57
2022/06/17 09:48:04;;;;;;;3.17;2.87;;;31.00;48.50;;;;;;5113438;28;20525;-57
2022/06/17 09:50:38;;;;;;;3.27;2.97;;;30.90;49.00;;;;;;5113570;28;20478;-57
2022/06/17 09:53:13;;;;;;;3.43;2.97;;;31.30;48.50;;;;;;5113836;28;20437;-57
2022/06/17 09:55:46;;;;;;;5.37;2.97;;;31.60;48.20;;;;;;5113427;28;20441;-57
2022/06/17 09:58:22;;;;;;;3.20;2.70;;;31.10;47.90;;;;;;5113480;28;20422;-57
2022/06/17 10:00:52;;;;;;;3.57;2.80;;;31.80;47.70;;;;;;5115423;28;20564;-57
2022/06/17 10:03:24;;;;;;;5.60;3.00;;;31.60;48.90;;;;;;5118138;28;20461;-57
2022/06/17 10:06:06;;;;;;;3.27;2.70;;;31.70;47.70;;;;;;5117766;28;20510;-57
2022/06/17 10:08:48;;;;;;;5.20;3.00;;;31.90;49.00;;;;;;5117457;28;20889;-57
2022/06/17 10:11:23;;;;;;;3.60;2.80;;;32.30;47.60;;;;;;5117776;28;20461;-57
2022/06/17 10:13:58;;;;;;;4.40;2.83;;;31.90;47.60;;;;;;5117536;28;20471;-57
2022/06/17 10:19:32;;;;;;;2.63;2.40;;;32.40;45.80;;;;;;5117353;28;20487;-57
2022/06/17 10:22:18;;;;;;;3.27;2.53;;;32.60;46.20;;;;;;5117773;28;20513;-57
2022/06/17 10:25:00;;;;;;;2.80;2.60;;;32.60;45.70;;;;;;5117234;28;20430;-57
2022/06/17 10:27:53;;;;;;;2.93;2.73;;;32.50;44.70;;;;;;5117564;28;20471;-57
2022/06/17 10:30:25;;;;;;;2.47;2.20;;;32.20;46.20;;;;;;5116867;28;20490;-57
2022/06/17 10:32:54;;;;;;;2.47;2.27;;;32.30;45.80;;;;;;5117479;28;20422;-57
2022/06/17 10:35:27;;;;;;;4.40;2.47;;;31.90;46.70;;;;;;5117394;28;20438;-57
2022/06/17 10:37:58;;;;;;;3.37;2.50;;;32.70;46.70;;;;;;5117500;28;20430;-57
2022/06/17 10:40:28;;;;;;;2.60;2.40;;;32.50;45.00;;;;;;5116796;27;20967;-57
2022/06/17 10:43:04;;;;;;;3.30;2.97;;;32.30;46.00;;;;;;5117270;27;20615;-58
2022/06/17 10:45:31;;;;;;;3.70;2.70;;;32.60;45.60;;;;;;5116898;28;20571;-57
2022/06/17 10:48:05;;;;;;;5.30;2.90;;;31.90;43.90;;;;;;5116874;28;20868;-57
2022/06/17 10:50:33;;;;;;;3.20;2.83;;;31.60;45.40;;;;;;5117067;28;20454;-57
2022/06/17 10:53:07;;;;;;;3.03;2.60;;;31.30;45.00;;;;;;5116643;28;20924;-57
2022/06/17 10:55:37;;;;;;;3.97;3.50;;;31.40;45.30;;;;;;5116896;28;20444;-57
2022/06/17 10:58:13;;;;;;;3.47;2.30;;;32.30;46.20;;;;;;5117073;28;20521;-57
2022/06/17 11:00:46;;;;;;;3.17;2.40;;;33.00;44.40;;;;;;5116490;28;20920;-57
2022/06/17 11:03:18;;;;;;;3.07;2.20;;;33.30;44.00;;;;;;5116507;28;21209;-57
2022/06/17 11:06:00;;;;;;;4.17;2.67;;;32.70;45.10;;;;;;5116923;28;20431;-57
2022/06/17 11:08:30;;;;;;;5.83;2.77;;;;;;;;;;5116879;28;20893;-57
2022/06/17 11:12:02;;;;;;;3.87;2.40;;;32.80;43.50;;;;;;5116532;28;20453;-57
2022/06/17 11:13:51;;;;;;;2.87;2.67;;;32.50;43.20;;;;;;5115476;28;20446;-57
2022/06/17 11:16:20;;;;;;;3.30;2.60;;;33.40;44.20;;;;;;5116640;28;20454;-57
2022/06/17 11:18:58;;;;;;;3.10;2.67;;;33.70;42.90;;;;;;5116176;28;20940;-57
2022/06/17 11:21:29;;;;;;;2.30;2.10;;;33.60;42.50;;;;;;5116207;28;20552;-57
2022/06/17 11:23:59;;;;;;;3.63;2.30;;;33.20;42.10;;;;;;5116333;28;20438;-57
2022/06/17 11:26:30;;;;;;;2.43;2.23;;;32.80;42.00;;;;;;5116317;28;20457;-57
2022/06/17 11:29:02;;;;;;;3.00;2.50;;;33.00;42.20;;;;;;5115870;28;20549;-57
2022/06/17 11:31:41;;;;;;;2.37;2.17;;;33.40;41.60;;;;;;5116364;28;20427;-57
2022/06/17 11:34:17;;;;;;;2.30;2.20;;;33.20;41.20;;;;;;5116224;28;20434;-57
2022/06/17 11:37:07;;;;;;;3.03;2.60;;;32.80;40.60;;;;;;5116241;28;20430;-56
2022/06/17 11:39:36;;;;;;;3.03;2.40;;;33.00;41.60;;;;;;5115892;28;20490;-57
2022/06/17 11:42:14;;;;;;;3.17;2.67;;;33.60;42.60;;;;;;5116392;28;20536;-57
2022/06/17 11:44:55;;;;;;;3.00;2.70;;;33.20;43.20;;;;;;5115679;28;20473;-57
2022/06/17 11:47:25;;;;;;;2.97;2.67;;;33.60;42.40;;;;;;5116169;28;20551;-57
2022/06/17 11:49:55;;;;;;;3.63;2.67;;;33.40;43.10;;;;;;5115850;28;20458;-56
2022/06/17 11:52:29;;;;;;;3.60;2.50;;;33.40;42.20;;;;;;5115945;28;20521;-57
2022/06/17 11:54:57;;;;;;;1.97;1.87;;;33.50;41.90;;;;;;5115585;28;20422;-57
2022/06/17 11:57:27;;;;;;;2.77;2.27;;;33.70;43.50;;;;;;5115320;28;20454;-57
2022/06/17 11:59:58;;;;;;;4.00;2.50;;;33.80;42.10;;;;;;5115216;28;20462;-57
2022/06/17 12:02:27;;;;;;;2.20;2.10;;;33.70;43.10;;;;;;5115352;28;20434;-57
2022/06/17 12:04:59;;;;;;;3.00;2.00;;;33.40;42.90;;;;;;5115304;28;20448;-57
2022/06/17 12:07:36;;;;;;;2.37;2.17;;;33.50;42.10;;;;;;5115625;28;20426;-57
2022/06/17 12:10:18;;;;;;;5.70;2.70;;;33.70;42.40;;;;;;5115540;28;20490;-57
2022/06/17 12:12:46;;;;;;;2.20;2.00;;;32.90;41.60;;;;;;5115531;28;20417;-57
2022/06/17 12:15:26;;;;;;;2.23;2.03;;;32.90;45.60;;;;;;5115665;28;20533;-57
2022/06/17 12:17:56;;;;;;;4.13;2.33;;;33.30;41.50;;;;;;5115095;28;20434;-56
2022/06/17 12:20:30;;;;;;;3.00;2.30;;;32.70;41.70;;;;;;5115049;28;20494;-57
2022/06/17 12:23:04;;;;;;;2.07;1.87;;;33.10;42.60;;;;;;5115279;28;20516;-57
2022/06/17 12:25:40;;;;;;;3.90;2.20;;;33.70;42.30;;;;;;5113988;28;20535;-57
2022/06/17 12:28:18;;;;;;;3.20;2.20;;;33.40;40.80;;;;;;5115114;28;20406;-56
2022/06/17 12:30:56;;;;;;;2.03;1.93;;;32.70;41.50;;;;;;5114795;28;20545;-56
2022/06/17 12:33:29;;;;;;;2.17;1.80;;;33.00;41.00;;;;;;5114773;28;20499;-57
2022/06/17 12:36:04;;;;;;;2.37;2.17;;;33.10;41.80;;;;;;5114831;28;20431;-57
2022/06/17 12:38:40;;;;;;;1.90;1.70;;;32.80;41.70;;;;;;5114712;28;20426;-57
2022/06/17 12:41:14;;;;;;;3.37;2.47;;;33.00;41.00;;;;;;5114222;28;20489;-56
2022/06/17 12:43:48;;;;;;;6.40;2.00;;;33.00;41.50;;;;;;5114567;28;20532;-57
2022/06/17 12:46:25;;;;;;;2.20;2.10;;;33.20;41.10;;;;;;5114584;28;20427;-57
2022/06/17 12:48:58;;;;;;;2.20;2.00;;;33.30;40.90;;;;;;5114501;28;20466;-57
2022/06/17 12:54:27;;;;;;;2.20;2.00;;;32.60;49.40;;;;;;5114525;28;20768;-57
2022/06/17 12:57:03;;;;;;;3.10;2.07;;;32.30;44.40;;;;;;5114534;27;20817;-57
2022/06/17 12:59:46;;;;;;;3.20;1.97;;;32.20;41.40;;;;;;5114234;28;20476;-57
2022/06/17 13:02:19;;;;;;;3.40;1.83;;;32.50;41.60;;;;;;5114076;28;20498;-56
2022/06/17 13:05:05;;;;;;;3.43;2.03;;;32.20;41.20;;;;;;5114739;28;20441;-56
2022/06/17 13:07:45;;;;;;;4.37;2.00;;;31.70;41.70;;;;;;5114601;28;20427;-56
2022/06/17 13:13:11;;;;;;;2.80;2.00;;;31.80;41.50;;;;;;5114100;28;20398;-56
2022/06/17 13:15:44;;;;;;;2.50;2.30;;;31.60;41.60;;;;;;5114165;28;20893;-57
2022/06/17 13:18:21;;;;;;;3.67;1.70;;;31.60;42.00;;;;;;5114433;28;20509;-57
2022/06/17 13:20:53;;;;;;;2.23;1.80;;;32.00;41.50;;;;;;5113788;28;20846;-56
2022/06/17 13:23:26;;;;;;;2.40;2.20;;;31.30;41.20;;;;;;5114228;28;20500;-56
2022/06/17 13:26:04;;;;;;;3.20;1.87;;;30.80;40.70;;;;;;5113991;28;20471;-56
2022/06/17 13:28:40;;;;;;;4.03;2.10;;;30.80;41.20;;;;;;5114091;28;20853;-56